Time;durP1;ratioP1;P1;durP2;ratioP2;P2;SDS_P1;SDS_P2;PMS_P1;PMS_P2;Temp;Humidity;BMP_temperature;BMP_pressure;BME280_temperature;BME280_humidity;BME280_pressure;Samples;Min_cycle;Max_cycle;Signal;HPM_P1;HPM_P2
2022/09/18 00:01:30;;;;;;;8.98;3.88;;;10.20;99.90;;;;;;5039380;28;20391;-82
2022/09/18 00:04:00;;;;;;;6.30;4.22;;;10.10;99.90;;;;;;5033965;28;20256;-82
2022/09/18 00:06:30;;;;;;;4.47;2.55;;;9.90;99.90;;;;;;5032822;28;20212;-82
2022/09/18 00:09:00;;;;;;;7.78;3.80;;;9.70;99.90;;;;;;5041604;28;20230;-81
2022/09/18 00:11:32;;;;;;;6.03;3.42;;;9.60;99.90;;;;;;5039352;28;20255;-81
2022/09/18 00:13:59;;;;;;;5.30;2.78;;;9.30;99.90;;;;;;5037510;28;20214;-81
2022/09/18 00:16:26;;;;;;;4.43;3.03;;;9.20;99.90;;;;;;5039849;28;20547;-83
2022/09/18 00:18:55;;;;;;;6.45;3.30;;;9.20;99.90;;;;;;5037092;28;20211;-84
2022/09/18 00:21:23;;;;;;;4.95;3.05;;;9.10;99.90;;;;;;5039717;28;20456;-81
2022/09/18 00:23:55;;;;;;;12.50;3.15;;;9.30;99.90;;;;;;5036014;28;20610;-81
2022/09/18 00:26:24;;;;;;;8.30;3.00;;;9.20;99.90;;;;;;5040083;28;20285;-81
2022/09/18 00:28:53;;;;;;;7.28;3.30;;;9.10;99.90;;;;;;5030680;28;20228;-82
2022/09/18 00:31:28;;;;;;;4.72;2.80;;;9.10;99.90;;;;;;5054172;28;20249;-81
2022/09/18 00:34:01;;;;;;;5.40;2.83;;;9.10;99.90;;;;;;5043066;28;20197;-83
2022/09/18 00:36:28;;;;;;;5.97;2.42;;;9.10;99.90;;;;;;5039569;28;20212;-81
2022/09/18 00:38:58;;;;;;;5.93;2.60;;;9.10;99.90;;;;;;5038226;28;20259;-83
2022/09/18 00:41:37;;;;;;;7.15;2.60;;;9.10;99.90;;;;;;5044356;28;20193;-81
2022/09/18 00:44:31;;;;;;;5.43;2.40;;;9.30;99.90;;;;;;5028504;28;20204;-81
2022/09/18 00:47:10;;;;;;;4.88;2.30;;;9.20;99.90;;;;;;5036581;28;20201;-81
2022/09/18 00:49:41;;;;;;;8.20;3.30;;;9.10;99.90;;;;;;5036823;28;20304;-83
2022/09/18 00:52:09;;;;;;;3.55;2.83;;;9.10;99.90;;;;;;5036609;28;20264;-81
2022/09/18 00:54:45;;;;;;;3.90;2.30;;;9.00;99.90;;;;;;5037883;28;20208;-83
2022/09/18 00:57:18;;;;;;;4.35;3.65;;;9.00;99.90;;;;;;5050327;28;20258;-82
2022/09/18 00:59:48;;;;;;;5.65;2.80;;;8.90;99.90;;;;;;5038586;28;20252;-83
2022/09/18 01:02:15;;;;;;;5.95;3.25;;;8.80;99.90;;;;;;5034782;28;20242;-84
2022/09/18 01:04:42;;;;;;;4.47;3.20;;;8.70;99.90;;;;;;5034626;28;20280;-83
2022/09/18 01:07:30;;;;;;;3.72;2.50;;;8.70;99.90;;;;;;5031524;28;20206;-83
2022/09/18 01:10:17;;;;;;;7.10;3.33;;;8.50;99.90;;;;;;5029974;28;20228;-83
2022/09/18 01:12:56;;;;;;;10.80;3.25;;;8.60;99.90;;;;;;5032655;28;20212;-84
2022/09/18 01:15:33;;;;;;;7.43;2.63;;;8.50;99.90;;;;;;5035330;28;20259;-82
2022/09/18 01:18:18;;;;;;;6.22;2.90;;;8.30;99.90;;;;;;5037537;28;20251;-83
2022/09/18 01:21:13;;;;;;;5.05;2.78;;;8.20;99.90;;;;;;5048629;28;20309;-83
2022/09/18 01:23:46;;;;;;;2.53;1.70;;;8.30;99.90;;;;;;5049979;28;20260;-83
2022/09/18 01:26:38;;;;;;;2.88;1.85;;;8.40;99.90;;;;;;5045822;28;20199;-82
2022/09/18 01:29:14;;;;;;;6.60;1.63;;;8.50;99.90;;;;;;5039358;28;20238;-82
2022/09/18 01:32:20;;;;;;;3.17;2.60;;;8.90;99.90;;;;;;5031902;28;20442;-84
2022/09/18 01:35:09;;;;;;;3.90;1.88;;;9.20;99.90;;;;;;4992693;28;20627;-83
2022/09/18 01:38:05;;;;;;;6.13;1.90;;;9.30;99.90;;;;;;5029834;28;20255;-84
2022/09/18 01:40:57;;;;;;;4.43;2.55;;;9.30;99.90;;;;;;5035527;28;20205;-82
2022/09/18 01:43:28;;;;;;;3.30;1.80;;;9.40;99.90;;;;;;5031636;28;20206;-82
2022/09/18 01:45:58;;;;;;;3.05;2.03;;;9.50;99.90;;;;;;5037149;28;20518;-84
2022/09/18 01:48:29;;;;;;;4.10;1.65;;;9.50;99.90;;;;;;5044854;28;20218;-85
2022/09/18 01:51:05;;;;;;;1.92;1.73;;;9.50;99.90;;;;;;5033990;28;20217;-83
2022/09/18 01:53:37;;;;;;;2.22;1.38;;;9.60;99.90;;;;;;5036055;28;20222;-81
2022/09/18 01:56:25;;;;;;;5.65;2.08;;;9.70;99.90;;;;;;5033092;28;20249;-84
2022/09/18 01:58:56;;;;;;;2.05;1.27;;;9.70;99.90;;;;;;5036311;28;20206;-82
2022/09/18 02:01:29;;;;;;;2.00;1.13;;;9.80;99.90;;;;;;5031167;28;20249;-83
2022/09/18 02:04:06;;;;;;;4.30;1.00;;;9.90;99.90;;;;;;5041943;28;20198;-82
2022/09/18 02:06:41;;;;;;;1.10;1.10;;;9.90;99.90;;;;;;5030294;28;20441;-85
2022/09/18 02:09:10;;;;;;;1.20;1.05;;;10.00;99.90;;;;;;5039933;28;20229;-83
2022/09/18 02:11:42;;;;;;;4.55;1.15;;;10.10;99.90;;;;;;5036279;28;20241;-84
2022/09/18 02:14:25;;;;;;;1.77;1.45;;;10.30;99.90;;;;;;5031559;28;20215;-84
2022/09/18 02:16:59;;;;;;;1.30;1.17;;;10.20;99.90;;;;;;5027221;28;20203;-83
2022/09/18 02:20:09;;;;;;;4.20;1.05;;;10.30;99.90;;;;;;5033871;28;20262;-84
2022/09/18 02:22:38;;;;;;;2.67;1.10;;;10.30;99.90;;;;;;5004863;28;20259;-82
2022/09/18 02:25:07;;;;;;;1.00;0.80;;;10.30;99.90;;;;;;5037931;28;20228;-81
2022/09/18 02:27:37;;;;;;;1.67;1.10;;;10.30;99.90;;;;;;5042630;28;20218;-80
2022/09/18 02:30:08;;;;;;;2.25;1.02;;;10.30;99.90;;;;;;5031330;28;20262;-83
2022/09/18 02:32:38;;;;;;;3.90;1.17;;;10.40;99.90;;;;;;5027696;28;20210;-81
2022/09/18 02:35:07;;;;;;;0.60;0.60;;;10.30;99.90;;;;;;5033482;28;20202;-84
2022/09/18 02:37:44;;;;;;;1.00;1.00;;;10.20;99.90;;;;;;5033640;28;20210;-81
2022/09/18 02:40:18;;;;;;;0.98;0.73;;;10.40;99.90;;;;;;5033463;28;20210;-80
2022/09/18 02:43:12;;;;;;;1.80;0.75;;;10.50;99.90;;;;;;5050384;28;20207;-81
2022/09/18 02:46:06;;;;;;;0.73;0.73;;;10.40;99.90;;;;;;5041357;28;20198;-83
2022/09/18 02:48:46;;;;;;;1.23;0.90;;;10.50;99.90;;;;;;5031867;28;20302;-80
2022/09/18 02:51:27;;;;;;;0.80;0.80;;;10.70;99.90;;;;;;5029713;28;20691;-81
2022/09/18 02:54:03;;;;;;;1.58;1.02;;;10.60;99.90;;;;;;5034194;28;20229;-80
2022/09/18 02:56:59;;;;;;;0.80;0.50;;;10.70;99.90;;;;;;5038582;28;20203;-80
2022/09/18 02:59:35;;;;;;;0.50;0.50;;;10.60;99.90;;;;;;5032549;28;20622;-81
2022/09/18 03:02:04;;;;;;;0.73;0.60;;;10.60;99.90;;;;;;5031289;28;20236;-80
2022/09/18 03:04:32;;;;;;;1.48;0.85;;;10.70;99.90;;;;;;5035663;28;20219;-81
2022/09/18 03:06:59;;;;;;;6.50;1.50;;;10.80;99.90;;;;;;5032018;28;20310;-81
2022/09/18 03:09:26;;;;;;;1.35;0.80;;;10.70;99.90;;;;;;5034773;28;20231;-82
2022/09/18 03:11:54;;;;;;;3.47;0.95;;;10.80;99.90;;;;;;5030775;28;20397;-81
2022/09/18 03:14:21;;;;;;;0.50;0.50;;;10.60;99.90;;;;;;5033515;28;20207;-82
2022/09/18 03:16:48;;;;;;;1.70;0.98;;;10.70;99.90;;;;;;5027423;28;20230;-81
2022/09/18 03:19:16;;;;;;;0.93;0.80;;;10.80;99.90;;;;;;5025269;28;20262;-81
2022/09/18 03:21:43;;;;;;;0.80;0.80;;;10.80;99.90;;;;;;5030575;28;20370;-82
2022/09/18 03:24:10;;;;;;;0.55;0.55;;;10.80;99.90;;;;;;5034955;28;20215;-81
2022/09/18 03:26:37;;;;;;;1.75;0.80;;;10.70;99.90;;;;;;5035374;28;20208;-80
2022/09/18 03:29:08;;;;;;;0.85;0.60;;;10.70;99.90;;;;;;5033578;28;20379;-81
2022/09/18 03:31:35;;;;;;;0.70;0.60;;;10.50;99.90;;;;;;5039569;28;20211;-80
2022/09/18 03:34:03;;;;;;;0.77;0.63;;;10.50;99.90;;;;;;5029483;28;20238;-81
2022/09/18 03:36:30;;;;;;;0.70;0.70;;;10.60;99.90;;;;;;5037981;28;20269;-80
2022/09/18 03:38:57;;;;;;;0.73;0.73;;;10.40;99.90;;;;;;5035102;28;20441;-79
2022/09/18 03:41:25;;;;;;;0.60;0.60;;;10.40;99.90;;;;;;5031064;28;20214;-79
2022/09/18 03:43:52;;;;;;;1.15;0.93;;;10.40;99.90;;;;;;5043748;28;20186;-79
2022/09/18 03:46:22;;;;;;;0.80;0.80;;;10.40;99.90;;;;;;5051767;28;20191;-82
2022/09/18 03:48:50;;;;;;;0.90;0.90;;;10.50;99.90;;;;;;5045198;28;20235;-80
2022/09/18 03:51:21;;;;;;;0.77;0.50;;;10.50;99.90;;;;;;5033382;28;20557;-79
2022/09/18 03:53:49;;;;;;;1.60;1.08;;;10.60;99.90;;;;;;5036467;28;20508;-80
2022/09/18 03:56:17;;;;;;;1.35;1.15;;;10.60;99.90;;;;;;5038836;28;20252;-80
2022/09/18 03:58:44;;;;;;;0.70;0.70;;;10.60;99.90;;;;;;5037674;28;20199;-79
2022/09/18 04:01:13;;;;;;;3.60;1.10;;;10.80;99.90;;;;;;5055267;28;20193;-80
2022/09/18 04:03:41;;;;;;;1.00;0.90;;;10.50;99.90;;;;;;5060029;28;20212;-81
2022/09/18 04:06:10;;;;;;;0.85;0.85;;;10.30;99.90;;;;;;5033706;28;20210;-85
2022/09/18 04:08:37;;;;;;;0.90;0.90;;;10.10;99.90;;;;;;5046909;28;20546;-85
2022/09/18 04:11:05;;;;;;;2.00;0.98;;;10.00;99.90;;;;;;5044044;28;20242;-84
2022/09/18 04:13:32;;;;;;;5.18;1.10;;;10.00;99.90;;;;;;5031904;28;20220;-84
2022/09/18 04:15:59;;;;;;;1.40;1.30;;;10.10;99.90;;;;;;5036533;28;20206;-83
2022/09/18 04:18:26;;;;;;;2.85;1.42;;;10.10;99.90;;;;;;5037553;28;20202;-86
2022/09/18 04:20:53;;;;;;;1.77;1.67;;;10.30;99.90;;;;;;5034030;28;20214;-83
2022/09/18 04:23:20;;;;;;;0.90;0.90;;;10.30;99.90;;;;;;5038283;28;20491;-82
2022/09/18 04:25:48;;;;;;;0.88;0.88;;;10.10;99.90;;;;;;5028706;28;20219;-82
2022/09/18 04:28:14;;;;;;;2.55;1.10;;;10.00;99.90;;;;;;5033018;28;20207;-84
2022/09/18 04:30:42;;;;;;;1.35;1.25;;;10.00;99.90;;;;;;5038474;28;20237;-82
2022/09/18 04:33:08;;;;;;;2.72;1.17;;;10.00;99.90;;;;;;5037594;28;20249;-82
2022/09/18 04:35:36;;;;;;;1.40;1.30;;;10.10;99.90;;;;;;5036400;28;20203;-82
2022/09/18 04:38:03;;;;;;;1.00;1.00;;;10.10;99.90;;;;;;5024418;28;20643;-82
2022/09/18 04:40:30;;;;;;;1.20;1.20;;;10.00;99.90;;;;;;5036647;28;20215;-81
2022/09/18 04:42:57;;;;;;;2.88;1.17;;;10.00;99.90;;;;;;5033336;28;20200;-83
2022/09/18 04:45:25;;;;;;;0.98;0.90;;;10.20;99.90;;;;;;5036280;28;20229;-82
2022/09/18 04:47:52;;;;;;;1.10;1.10;;;10.30;99.90;;;;;;5033953;28;20258;-83
2022/09/18 04:50:19;;;;;;;1.33;1.00;;;10.30;99.90;;;;;;5034810;28;20229;-81
2022/09/18 04:52:45;;;;;;;2.67;1.10;;;10.30;99.90;;;;;;5037706;28;20268;-79
2022/09/18 04:55:13;;;;;;;0.82;0.82;;;10.30;99.90;;;;;;5040329;28;20214;-82
2022/09/18 04:57:40;;;;;;;5.32;1.80;;;10.30;99.90;;;;;;5064879;28;20236;-81
2022/09/18 05:00:08;;;;;;;1.27;1.17;;;10.30;99.90;;;;;;5065439;28;20221;-80
2022/09/18 05:02:35;;;;;;;1.20;1.10;;;10.50;99.90;;;;;;5054458;28;20321;-82
2022/09/18 05:05:05;;;;;;;1.23;1.10;;;10.50;99.90;;;;;;5037360;28;20263;-81
2022/09/18 05:07:31;;;;;;;1.63;1.10;;;10.60;99.90;;;;;;5047357;28;20257;-82
2022/09/18 05:09:59;;;;;;;1.00;1.00;;;10.50;99.90;;;;;;5035390;28;20274;-82
2022/09/18 05:12:28;;;;;;;2.22;1.40;;;10.50;99.90;;;;;;5039613;28;20322;-82
2022/09/18 05:14:56;;;;;;;2.58;1.27;;;10.40;99.90;;;;;;5038310;28;20226;-81
2022/09/18 05:17:23;;;;;;;1.20;1.10;;;10.40;99.90;;;;;;5042001;28;20207;-80
2022/09/18 05:19:51;;;;;;;2.33;1.48;;;10.40;99.90;;;;;;5031295;28;20210;-80
2022/09/18 05:22:18;;;;;;;2.25;2.05;;;10.40;99.90;;;;;;5032776;28;20199;-80
2022/09/18 05:24:44;;;;;;;2.05;1.52;;;10.50;99.90;;;;;;5035819;28;20215;-82
2022/09/18 05:27:12;;;;;;;1.50;1.40;;;10.60;99.90;;;;;;5032579;28;20491;-81
2022/09/18 05:29:39;;;;;;;1.40;1.30;;;10.50;99.90;;;;;;5035508;28;20276;-83
2022/09/18 05:32:06;;;;;;;2.17;1.70;;;10.40;99.90;;;;;;5013392;28;20321;-80
2022/09/18 05:34:33;;;;;;;2.22;1.90;;;10.40;99.90;;;;;;5025962;28;20216;-83
2022/09/18 05:36:59;;;;;;;1.92;1.63;;;10.40;99.90;;;;;;5031017;28;20466;-80
2022/09/18 05:39:26;;;;;;;1.70;1.52;;;10.50;99.90;;;;;;5038931;28;20203;-80
2022/09/18 05:41:53;;;;;;;1.90;1.80;;;10.40;99.90;;;;;;5037737;28;20724;-79
2022/09/18 05:44:20;;;;;;;1.50;1.40;;;10.40;99.90;;;;;;5039584;28;20208;-80
2022/09/18 05:46:48;;;;;;;3.55;1.90;;;10.60;99.90;;;;;;5036610;28;20200;-78
2022/09/18 05:49:15;;;;;;;1.63;1.52;;;10.60;99.90;;;;;;5037099;28;20449;-80
2022/09/18 05:51:43;;;;;;;1.50;1.40;;;10.70;99.90;;;;;;5035164;28;20243;-81
2022/09/18 05:54:10;;;;;;;2.70;1.67;;;10.70;99.90;;;;;;5034307;28;20211;-81
2022/09/18 05:56:37;;;;;;;2.22;2.08;;;10.90;99.90;;;;;;5039198;28;20282;-81
2022/09/18 05:59:10;;;;;;;2.15;1.98;;;11.00;99.90;;;;;;5051122;28;20191;-79
2022/09/18 06:02:01;;;;;;;5.30;1.67;;;11.00;99.90;;;;;;5064644;28;20249;-82
2022/09/18 06:04:42;;;;;;;2.42;2.22;;;11.20;99.90;;;;;;5042653;28;20209;-82
2022/09/18 06:07:11;;;;;;;1.60;1.50;;;11.30;99.90;;;;;;5032065;28;20510;-81
2022/09/18 06:10:39;;;;;;;2.08;1.98;;;11.40;99.90;;;;;;5045328;28;20243;-81
2022/09/18 06:13:26;;;;;;;1.80;1.70;;;11.70;99.90;;;;;;5046069;28;20199;-83
2022/09/18 06:17:20;;;;;;;2.55;2.17;;;11.40;99.90;;;;;;5050671;28;20251;-81
2022/09/18 06:20:32;;;;;;;2.33;2.13;;;11.40;99.90;;;;;;4990086;28;20194;-81
2022/09/18 06:23:24;;;;;;;5.35;4.05;;;11.50;99.90;;;;;;5036696;28;20721;-82
2022/09/18 06:26:23;;;;;;;2.80;2.10;;;11.50;99.90;;;;;;5044798;28;20205;-84
2022/09/18 06:29:10;;;;;;;2.55;2.33;;;11.30;99.90;;;;;;5047068;28;20195;-82
2022/09/18 06:32:04;;;;;;;4.63;2.75;;;11.40;99.90;;;;;;5043699;28;20288;-82
2022/09/18 06:34:50;;;;;;;2.05;1.95;;;11.60;99.90;;;;;;5054266;28;20263;-83
2022/09/18 06:37:32;;;;;;;2.35;2.15;;;11.50;99.90;;;;;;5542046;22;20297;-84
2022/09/18 06:41:04;;;;;;;3.42;2.30;;;11.60;99.90;;;;;;5237712;22;20246;-85
2022/09/18 06:43:49;;;;;;;2.35;2.15;;;11.60;99.90;;;;;;5091811;22;20238;-87
2022/09/18 06:46:15;;;;;;;6.10;3.42;;;11.60;99.90;;;;;;5037178;28;20207;-85
2022/09/18 06:49:06;;;;;;;2.60;2.40;;;11.50;99.90;;;;;;5047591;28;20274;-87
2022/09/18 06:51:34;;;;;;;4.05;2.22;;;11.30;99.90;;;;;;5035544;28;20263;-84
2022/09/18 06:54:00;;;;;;;3.60;3.30;;;11.30;99.90;;;;;;5045009;28;20214;-83
2022/09/18 06:56:28;;;;;;;3.03;2.78;;;11.20;99.90;;;;;;5048494;28;20226;-84
2022/09/18 06:59:01;;;;;;;2.85;2.65;;;11.10;99.90;;;;;;5051461;28;20203;-83
2022/09/18 07:01:38;;;;;;;4.05;3.75;;;11.20;99.90;;;;;;5046839;28;20222;-83
2022/09/18 07:04:06;;;;;;;3.75;3.45;;;11.20;99.90;;;;;;5046936;28;20214;-81
2022/09/18 07:06:39;;;;;;;4.63;4.22;;;11.10;99.90;;;;;;5032601;28;20208;-83
2022/09/18 07:09:27;;;;;;;5.57;4.45;;;11.20;99.90;;;;;;5049064;28;20267;-85
2022/09/18 07:12:03;;;;;;;4.63;4.22;;;11.30;99.90;;;;;;5046749;28;20208;-83
2022/09/18 07:14:40;;;;;;;5.90;5.30;;;11.40;99.90;;;;;;5049165;28;20208;-83
2022/09/18 07:17:15;;;;;;;5.30;4.80;;;11.60;99.90;;;;;;5046599;28;20247;-83
2022/09/18 07:22:29;;;;;;;4.65;4.22;;;11.90;99.90;;;;;;5286903;22;20482;-80
2022/09/18 07:24:57;;;;;;;2.95;2.58;;;12.20;99.90;;;;;;5053502;28;20364;-83
2022/09/18 07:27:24;;;;;;;2.88;2.40;;;12.40;99.90;;;;;;5047222;28;20207;-83
2022/09/18 07:29:51;;;;;;;3.15;2.85;;;12.60;99.90;;;;;;5047984;28;20448;-82
2022/09/18 07:32:21;;;;;;;1.92;1.83;;;12.40;99.90;;;;;;5031958;28;20448;-82
2022/09/18 07:34:52;;;;;;;2.55;2.33;;;12.40;99.90;;;;;;5047881;28;20250;-82
2022/09/18 07:37:21;;;;;;;2.30;1.95;;;12.50;99.90;;;;;;5045822;28;20370;-82
2022/09/18 07:39:50;;;;;;;1.55;1.45;;;12.50;99.90;;;;;;5041795;28;20276;-85
2022/09/18 07:42:18;;;;;;;1.60;1.50;;;12.40;99.90;;;;;;5046418;28;20204;-80
2022/09/18 07:44:45;;;;;;;11.35;2.50;;;12.50;99.90;;;;;;5059411;28;20487;-84
2022/09/18 07:47:15;;;;;;;1.52;1.42;;;12.70;99.90;;;;;;5039079;28;20204;-80
2022/09/18 07:49:42;;;;;;;1.85;1.30;;;13.00;99.90;;;;;;5061086;28;20188;-82
2022/09/18 07:52:23;;;;;;;2.78;2.15;;;12.90;99.90;;;;;;5035612;28;20224;-84
2022/09/18 07:54:50;;;;;;;2.38;2.20;;;12.80;99.90;;;;;;5030953;28;20503;-82
2022/09/18 07:57:17;;;;;;;0.93;0.90;;;12.40;99.90;;;;;;5047406;28;20220;-80
2022/09/18 07:59:44;;;;;;;1.63;1.52;;;12.20;99.90;;;;;;5046092;28;20203;-82
2022/09/18 08:02:11;;;;;;;1.25;1.00;;;12.20;99.90;;;;;;5058799;28;20200;-80
2022/09/18 08:04:39;;;;;;;1.23;1.13;;;12.10;99.90;;;;;;5037042;28;20213;-81
2022/09/18 08:07:10;;;;;;;1.25;1.15;;;12.10;99.90;;;;;;5036878;28;20653;-82
2022/09/18 08:09:38;;;;;;;1.75;1.40;;;12.30;99.90;;;;;;5042852;28;20231;-83
2022/09/18 08:12:05;;;;;;;1.70;1.60;;;12.40;99.90;;;;;;5041688;28;20228;-79
2022/09/18 08:14:33;;;;;;;1.40;1.30;;;12.60;99.90;;;;;;5045815;28;20231;-80
2022/09/18 08:17:07;;;;;;;1.60;1.50;;;12.70;99.90;;;;;;5029064;28;20200;-83
2022/09/18 08:19:33;;;;;;;2.70;1.50;;;12.80;99.90;;;;;;5044952;28;20204;-82
2022/09/18 08:22:00;;;;;;;1.40;1.30;;;12.90;99.90;;;;;;5044504;28;20202;-80
2022/09/18 08:24:28;;;;;;;1.45;1.35;;;13.00;99.90;;;;;;5050953;28;20204;-84
2022/09/18 08:27:02;;;;;;;1.60;1.50;;;13.00;99.90;;;;;;5041582;28;20212;-81
2022/09/18 08:29:32;;;;;;;1.35;1.25;;;13.00;99.90;;;;;;5051953;28;20484;-81
2022/09/18 08:32:01;;;;;;;2.60;1.13;;;13.00;99.90;;;;;;5028401;28;20220;-81
2022/09/18 08:34:36;;;;;;;1.40;1.30;;;12.80;99.90;;;;;;5038979;28;20200;-81
2022/09/18 08:37:04;;;;;;;1.80;1.38;;;12.60;99.90;;;;;;5052017;28;20221;-80
2022/09/18 08:39:34;;;;;;;2.40;2.20;;;12.30;99.90;;;;;;5045080;28;20207;-81
2022/09/18 08:42:26;;;;;;;1.40;0.75;;;12.20;99.90;;;;;;5052141;28;20204;-78
2022/09/18 08:44:59;;;;;;;0.70;0.70;;;12.00;99.90;;;;;;5047281;28;20208;-80
2022/09/18 08:47:33;;;;;;;0.50;0.50;;;11.80;99.90;;;;;;5028842;28;20391;-80
2022/09/18 08:50:05;;;;;;;1.08;0.98;;;11.60;99.90;;;;;;5034240;28;20268;-81
2022/09/18 08:52:36;;;;;;;3.10;1.00;;;11.40;99.90;;;;;;5044817;28;20240;-81
2022/09/18 08:55:26;;;;;;;2.53;1.45;;;11.10;99.90;;;;;;5031647;28;20193;-81
2022/09/18 08:57:58;;;;;;;3.17;1.02;;;10.90;99.90;;;;;;5044388;28;20230;-81
2022/09/18 09:00:36;;;;;;;7.05;4.60;;;10.80;99.90;;;;;;5014632;28;20214;-79
2022/09/18 09:03:27;;;;;;;50.53;29.27;;;10.80;99.90;;;;;;5028337;28;20208;-79
2022/09/18 09:05:56;;;;;;;14.82;9.90;;;10.80;99.90;;;;;;5027629;28;20210;-79
2022/09/18 09:08:58;;;;;;;4.78;2.75;;;10.90;99.90;;;;;;5028414;28;20252;-80
2022/09/18 09:11:36;;;;;;;2.08;1.50;;;10.90;99.90;;;;;;5007068;28;20250;-82
2022/09/18 09:14:40;;;;;;;1.90;1.80;;;10.90;99.90;;;;;;5022390;28;20799;-79
2022/09/18 09:17:32;;;;;;;2.25;2.05;;;10.80;99.90;;;;;;5021279;28;20203;-79
2022/09/18 09:20:21;;;;;;;2.55;2.35;;;11.00;99.90;;;;;;5040003;28;20746;-79
2022/09/18 09:23:01;;;;;;;5.50;1.80;;;11.10;99.90;;;;;;5035889;28;20768;-82
2022/09/18 09:25:34;;;;;;;1.85;1.75;;;11.20;99.90;;;;;;5040738;28;20192;-81
2022/09/18 09:28:12;;;;;;;1.98;1.77;;;11.20;99.90;;;;;;5043206;28;20212;-80
2022/09/18 09:30:46;;;;;;;1.80;1.50;;;11.10;99.90;;;;;;5021715;28;20250;-82
2022/09/18 09:33:22;;;;;;;2.80;1.98;;;11.00;99.90;;;;;;5039431;28;20295;-80
2022/09/18 09:36:02;;;;;;;2.38;1.75;;;10.90;99.90;;;;;;5031750;28;20226;-81
2022/09/18 09:38:40;;;;;;;1.85;1.75;;;10.90;99.90;;;;;;5037300;28;20402;-80
2022/09/18 09:41:37;;;;;;;3.78;2.22;;;10.90;99.90;;;;;;5033713;28;20203;-81
2022/09/18 09:44:05;;;;;;;2.95;2.60;;;11.00;99.90;;;;;;5024667;28;20306;-84
2022/09/18 09:47:02;;;;;;;2.00;1.83;;;11.10;99.90;;;;;;5041492;28;20216;-80
2022/09/18 09:49:49;;;;;;;1.90;1.80;;;11.10;99.90;;;;;;5049012;28;20347;-83
2022/09/18 09:52:27;;;;;;;2.70;2.50;;;11.00;99.90;;;;;;5048447;28;20241;-83
2022/09/18 09:54:59;;;;;;;2.33;1.73;;;11.00;99.90;;;;;;5039674;28;20307;-83
2022/09/18 09:57:46;;;;;;;2.05;1.58;;;11.00;99.90;;;;;;5034231;28;20275;-81
2022/09/18 10:00:18;;;;;;;2.58;1.55;;;11.20;99.90;;;;;;5022553;28;20208;-86
2022/09/18 10:02:48;;;;;;;3.38;1.58;;;11.30;99.90;;;;;;5046503;28;20223;-85
2022/09/18 10:05:33;;;;;;;3.20;1.80;;;11.30;99.90;;;;;;5057099;28;20214;-82
2022/09/18 10:08:03;;;;;;;3.03;1.67;;;11.20;99.90;;;;;;5019698;28;20408;-85
2022/09/18 10:10:37;;;;;;;2.95;1.92;;;10.90;99.90;;;;;;5044110;28;20214;-80
2022/09/18 10:13:20;;;;;;;3.22;2.03;;;10.80;99.90;;;;;;5040205;28;20207;-85
2022/09/18 10:16:01;;;;;;;3.97;2.40;;;10.80;99.90;;;;;;5033733;28;20238;-81
2022/09/18 10:18:32;;;;;;;4.75;3.00;;;10.80;99.90;;;;;;5028438;28;20212;-80
2022/09/18 10:21:13;;;;;;;6.30;3.20;;;10.70;99.90;;;;;;5034154;28;20450;-82
2022/09/18 10:23:42;;;;;;;5.93;2.88;;;10.60;99.90;;;;;;5033875;28;20215;-79
2022/09/18 10:26:22;;;;;;;4.68;2.80;;;10.60;99.90;;;;;;5028730;28;20219;-82
2022/09/18 10:28:48;;;;;;;6.32;3.80;;;10.50;99.90;;;;;;5030993;28;20222;-80
2022/09/18 10:31:16;;;;;;;3.90;3.55;;;10.50;99.90;;;;;;5029066;28;20262;-81
2022/09/18 10:33:46;;;;;;;5.32;3.63;;;10.50;99.90;;;;;;5036859;28;20209;-84
2022/09/18 10:36:13;;;;;;;7.60;4.43;;;10.70;99.90;;;;;;5029138;28;20526;-83
2022/09/18 10:38:41;;;;;;;10.15;5.85;;;11.00;99.90;;;;;;5036420;28;20218;-86
2022/09/18 10:41:31;;;;;;;12.43;4.78;;;11.20;99.90;;;;;;5033204;28;20219;-79
2022/09/18 10:44:19;;;;;;;7.60;4.63;;;11.50;99.90;;;;;;5032495;28;20222;-82
2022/09/18 10:47:11;;;;;;;6.38;3.35;;;11.60;99.90;;;;;;5040010;28;20215;-83
2022/09/18 10:49:56;;;;;;;7.10;4.78;;;11.60;99.90;;;;;;5026306;28;20239;-80
2022/09/18 10:52:36;;;;;;;9.50;4.18;;;11.70;99.90;;;;;;5035420;28;20213;-83
2022/09/18 10:55:06;;;;;;;12.55;4.00;;;11.60;99.90;;;;;;5063617;28;20199;-87
2022/09/18 10:57:39;;;;;;;11.23;4.32;;;11.40;99.90;;;;;;5026406;28;20220;-81
2022/09/18 11:00:11;;;;;;;5.97;3.75;;;11.30;99.90;;;;;;5023536;28;20521;-83
2022/09/18 11:02:43;;;;;;;7.28;4.85;;;11.20;99.90;;;;;;5046261;28;20237;-83
2022/09/18 11:05:26;;;;;;;10.43;5.35;;;11.20;99.90;;;;;;5045575;28;20432;-80
2022/09/18 11:07:57;;;;;;;6.70;4.50;;;11.10;99.90;;;;;;5038944;28;20210;-80
2022/09/18 11:10:26;;;;;;;4.57;4.15;;;11.00;99.90;;;;;;5046895;28;20213;-83
2022/09/18 11:12:56;;;;;;;12.43;5.72;;;11.00;99.90;;;;;;5040674;28;20316;-83
2022/09/18 11:15:27;;;;;;;11.85;4.75;;;11.10;99.90;;;;;;5046826;28;20363;-81
2022/09/18 11:17:57;;;;;;;8.30;5.55;;;11.20;99.90;;;;;;5017449;28;20215;-83
2022/09/18 11:20:41;;;;;;;10.45;5.82;;;11.30;99.90;;;;;;5039366;28;20222;-82
2022/09/18 11:23:20;;;;;;;12.02;5.38;;;11.50;99.90;;;;;;5024034;28;20211;-80
2022/09/18 11:25:48;;;;;;;8.23;4.93;;;11.60;99.90;;;;;;5040752;28;20266;-81
2022/09/18 11:28:26;;;;;;;9.73;5.15;;;11.80;99.90;;;;;;5026780;28;20485;-80
2022/09/18 11:31:13;;;;;;;12.40;4.80;;;11.80;99.90;;;;;;5040783;28;20214;-83
2022/09/18 11:33:46;;;;;;;8.45;4.63;;;11.90;99.90;;;;;;5026392;28;20222;-82
2022/09/18 11:36:21;;;;;;;14.63;5.03;;;11.80;99.90;;;;;;5030651;28;20213;-80
2022/09/18 11:38:48;;;;;;;6.78;4.05;;;11.70;99.90;;;;;;5038592;28;20200;-80
2022/09/18 11:41:26;;;;;;;10.32;4.55;;;11.60;99.90;;;;;;5046976;28;20219;-80
2022/09/18 11:44:02;;;;;;;5.68;4.28;;;11.60;99.90;;;;;;5025700;28;20267;-83
2022/09/18 11:46:49;;;;;;;6.18;4.20;;;11.60;99.90;;;;;;5032838;28;20228;-81
2022/09/18 11:49:30;;;;;;;4.28;3.50;;;11.80;99.90;;;;;;5024247;28;20197;-82
2022/09/18 11:52:01;;;;;;;8.40;4.78;;;12.00;99.90;;;;;;5039766;28;20217;-78
2022/09/18 11:54:53;;;;;;;8.85;3.47;;;12.20;99.90;;;;;;5040791;28;20223;-83
2022/09/18 11:57:26;;;;;;;6.35;3.75;;;12.50;99.90;;;;;;5029245;28;20249;-81
2022/09/18 12:00:07;;;;;;;14.73;5.15;;;12.70;99.90;;;;;;5016415;28;20570;-81
2022/09/18 12:02:41;;;;;;;6.13;4.03;;;13.10;99.90;;;;;;5047642;28;20909;-82
2022/09/18 12:05:52;;;;;;;5.53;3.10;;;13.30;99.90;;;;;;5047003;28;20263;-80
2022/09/18 12:08:42;;;;;;;6.68;2.80;;;13.60;99.90;;;;;;4961376;29;20249;-85
2022/09/18 12:11:34;;;;;;;6.18;4.20;;;13.70;99.90;;;;;;4958721;29;20327;-85
2022/09/18 12:14:44;;;;;;;8.32;3.35;;;14.00;99.90;;;;;;5030166;28;20250;-82
2022/09/18 12:17:24;;;;;;;5.32;2.60;;;14.30;99.90;;;;;;5034016;28;20205;-83
2022/09/18 12:20:01;;;;;;;5.28;2.85;;;14.20;99.90;;;;;;5039835;28;20208;-81
2022/09/18 12:22:41;;;;;;;3.45;2.80;;;14.40;99.90;;;;;;5042277;28;20797;-84
2022/09/18 12:25:17;;;;;;;5.70;3.28;;;14.50;99.90;;;;;;5035716;28;20208;-84
2022/09/18 12:27:54;;;;;;;11.05;3.58;;;14.50;99.90;;;;;;5037437;28;20204;-87
2022/09/18 12:30:28;;;;;;;3.63;2.13;;;14.60;99.90;;;;;;5013046;28;20269;-82
2022/09/18 12:33:22;;;;;;;9.20;2.55;;;14.60;99.90;;;;;;5047487;28;20227;-84
2022/09/18 12:36:33;;;;;;;4.50;2.17;;;14.70;99.90;;;;;;5040958;28;20408;-83
2022/09/18 12:39:39;;;;;;;8.38;2.60;;;14.80;99.90;;;;;;5023885;28;20243;-82
2022/09/18 12:42:25;;;;;;;3.17;1.60;;;14.60;99.90;;;;;;5043460;28;20208;-83
2022/09/18 12:45:23;;;;;;;7.10;2.40;;;14.40;99.90;;;;;;5019040;28;20249;-85
2022/09/18 12:48:34;;;;;;;3.40;2.15;;;14.40;99.90;;;;;;5038565;28;20431;-86
2022/09/18 12:51:19;;;;;;;2.70;1.58;;;14.40;99.90;;;;;;5033215;28;20204;-85
2022/09/18 12:54:09;;;;;;;2.28;1.70;;;14.40;99.90;;;;;;5030621;28;20204;-83
2022/09/18 12:57:01;;;;;;;2.40;1.70;;;14.40;99.90;;;;;;5031920;28;20280;-83
2022/09/18 12:59:53;;;;;;;4.22;2.08;;;14.40;99.90;;;;;;5028359;28;20518;-86
2022/09/18 13:02:49;;;;;;;6.97;1.90;;;14.60;99.90;;;;;;5036840;28;20237;-86
2022/09/18 13:05:42;;;;;;;3.10;1.52;;;15.00;99.90;;;;;;5031938;28;20236;-85
2022/09/18 13:08:33;;;;;;;4.20;1.80;;;15.30;99.90;;;;;;5029272;28;20206;-85
2022/09/18 13:11:04;;;;;;;2.30;2.05;;;15.00;99.90;;;;;;5033017;28;20228;-84
2022/09/18 13:13:56;;;;;;;2.83;1.83;;;14.80;99.90;;;;;;5033866;28;20281;-85
2022/09/18 13:16:36;;;;;;;3.20;2.60;;;14.60;99.90;;;;;;5029338;28;20220;-84
2022/09/18 13:19:27;;;;;;;1.98;1.30;;;14.50;99.90;;;;;;5052278;28;20238;-80
2022/09/18 13:22:01;;;;;;;5.68;1.45;;;14.40;99.90;;;;;;5034407;28;20217;-82
2022/09/18 13:24:32;;;;;;;2.55;2.25;;;14.20;99.90;;;;;;5048125;28;20220;-78
2022/09/18 13:27:02;;;;;;;2.35;1.38;;;14.10;99.90;;;;;;5025688;28;20240;-83
2022/09/18 13:29:50;;;;;;;2.90;1.77;;;14.30;99.90;;;;;;5040364;28;20220;-85
2022/09/18 13:32:21;;;;;;;1.70;1.60;;;14.70;99.90;;;;;;5040494;28;20212;-82
2022/09/18 13:35:01;;;;;;;3.03;1.40;;;14.90;99.90;;;;;;5029876;28;20206;-86
2022/09/18 13:37:29;;;;;;;1.90;1.35;;;15.20;99.90;;;;;;5032381;28;20260;-84